createdAt,value
2023-04-22T00:00:14.741Z,75587.77
2023-04-22T00:02:42.076Z,75590.23
2023-04-22T00:05:12.878Z,75596.00
2023-04-22T00:07:42.661Z,75596.82
2023-04-22T00:10:10.613Z,75595.17
2023-04-22T00:12:42.522Z,75600.93
2023-04-22T00:15:10.347Z,75601.76
2023-04-22T00:17:37.870Z,75609.58
2023-04-22T00:20:07.320Z,75615.75
2023-04-22T00:22:34.499Z,75619.86
2023-04-22T00:25:01.703Z,75623.15
2023-04-22T00:27:29.209Z,75627.27
2023-04-22T00:29:58.793Z,75629.74
2023-04-22T00:32:29.851Z,75634.27
2023-04-22T00:34:58.234Z,75639.20
2023-04-22T00:37:26.361Z,75647.02
2023-04-22T00:39:53.414Z,75652.78
2023-04-22T00:42:20.966Z,75655.25
2023-04-22T00:44:50.858Z,75654.02
2023-04-22T00:47:22.169Z,75655.66
2023-04-22T00:49:49.147Z,75661.02
2023-04-22T00:52:16.125Z,75669.24
2023-04-22T00:54:43.207Z,75675.41
2023-04-22T00:57:10.938Z,75677.06
2023-04-22T00:59:38.301Z,75679.94
2023-04-22T01:02:06.169Z,75678.30
2023-04-22T01:04:34.204Z,75677.47
2023-04-22T01:07:01.425Z,75677.05
2023-04-22T01:09:28.561Z,75678.70
2023-04-22T01:11:56.004Z,75681.99
2023-04-22T01:14:24.433Z,75681.58
2023-04-22T01:16:53.575Z,75686.52
2023-04-22T01:19:21.025Z,75688.58
2023-04-22T01:21:50.818Z,75687.76
2023-04-22T01:24:18.176Z,75690.23
2023-04-22T01:26:48.134Z,75693.52
2023-04-22T01:29:16.080Z,75700.52
2023-04-22T01:31:46.114Z,75703.80
2023-04-22T01:34:15.297Z,75705.04
2023-04-22T01:36:42.508Z,75709.15
2023-04-22T01:39:09.592Z,75712.03
2023-04-22T01:41:36.633Z,75714.50
2023-04-22T01:44:04.383Z,75714.51
2023-04-22T01:46:33.063Z,75715.33
2023-04-22T01:49:00.309Z,75716.98
2023-04-22T01:51:27.488Z,75717.38
2023-04-22T01:53:56.117Z,75718.62
2023-04-22T01:56:26.779Z,75724.38
2023-04-22T01:58:53.752Z,75727.67
2023-04-22T02:01:21.129Z,75734.66
2023-04-22T02:03:50.564Z,75742.08
2023-04-22T02:06:20.025Z,75742.48
2023-04-22T02:08:46.996Z,75747.84
2023-04-22T02:11:17.155Z,75751.95
2023-04-22T02:13:45.973Z,75756.06
2023-04-22T02:16:14.607Z,75761.41
2023-04-22T02:18:43.168Z,75763.05
2023-04-22T02:21:10.264Z,75762.65
2023-04-22T02:23:38.650Z,75765.52
2023-04-22T02:26:05.781Z,75767.59
2023-04-22T02:28:33.332Z,75767.59
2023-04-22T02:31:00.780Z,75771.70
2023-04-22T02:33:27.878Z,75775.41
2023-04-22T02:35:55.021Z,75776.64
2023-04-22T02:38:26.618Z,75783.23
2023-04-22T02:40:53.902Z,75786.52
2023-04-22T02:43:22.511Z,75794.33
2023-04-22T02:45:51.835Z,75796.80
2023-04-22T02:48:19.468Z,75799.68
2023-04-22T02:50:47.853Z,75798.86
2023-04-22T02:53:17.943Z,75803.38
2023-04-22T02:55:45.617Z,75806.27
2023-04-22T02:58:12.682Z,75808.73
2023-04-22T03:00:39.917Z,75816.96
2023-04-22T03:03:07.324Z,75817.79
2023-04-22T03:05:35.457Z,75821.90
2023-04-22T03:08:02.795Z,75823.96
2023-04-22T03:10:33.544Z,75823.55
2023-04-22T03:13:04.064Z,75826.02
2023-04-22T03:15:32.051Z,75826.84
2023-04-22T03:18:00.124Z,75828.08
2023-04-22T03:20:29.177Z,75830.55
2023-04-22T03:22:56.233Z,75831.37
2023-04-22T03:25:25.149Z,75827.25
2023-04-22T03:27:54.170Z,75825.20
2023-04-22T03:30:25.367Z,75819.84
2023-04-22T03:32:53.181Z,75816.55
2023-04-22T03:35:25.470Z,75817.38
2023-04-22T03:37:53.731Z,75812.02
2023-04-22T03:40:29.228Z,75812.02
2023-04-22T03:42:57.564Z,75807.50
2023-04-22T03:45:28.253Z,75801.33
2023-04-22T03:48:10.274Z,75794.34
2023-04-22T03:50:42.143Z,75789.80
2023-04-22T03:53:09.177Z,75786.92
2023-04-22T03:55:36.912Z,75781.16
2023-04-22T03:58:05.288Z,75776.23
2023-04-22T04:00:35.854Z,75768.41
2023-04-22T04:03:09.044Z,75760.18
2023-04-22T04:05:36.894Z,75751.13
2023-04-22T04:08:07.902Z,75742.08
2023-04-22T04:10:36.611Z,75728.08
2023-04-22T04:13:04.893Z,75719.44
2023-04-22T04:15:39.602Z,75708.33
2023-04-22T04:18:07.568Z,75696.80
2023-04-22T04:20:35.076Z,75686.52
2023-04-22T04:23:02.018Z,75674.19
2023-04-22T04:25:37.132Z,75658.55
2023-04-22T04:28:11.563Z,75644.14
2023-04-22T04:30:41.187Z,75630.15
2023-04-22T04:33:11.685Z,75617.39
2023-04-22T04:35:42.775Z,75601.34
2023-04-22T04:38:12.299Z,75582.42
2023-04-22T04:40:40.244Z,75565.96
2023-04-22T04:43:15.633Z,75542.91
2023-04-22T04:45:48.753Z,75527.27
2023-04-22T04:48:24.593Z,75511.23
2023-04-22T04:50:53.817Z,75494.36
2023-04-22T04:53:22.784Z,75477.90
2023-04-22T04:55:50.373Z,75458.98
2023-04-22T04:58:21.407Z,75438.82
2023-04-22T05:00:52.329Z,75417.83
2023-04-22T05:03:20.291Z,75394.38
2023-04-22T05:05:56.666Z,75368.05
2023-04-22T05:08:25.650Z,75335.13
2023-04-22T05:10:55.674Z,75303.86
2023-04-22T05:13:22.823Z,75270.95
2023-04-22T05:15:50.983Z,75236.38
2023-04-22T05:18:19.056Z,75201.41
2023-04-22T05:20:46.298Z,75175.90
2023-04-22T05:23:13.761Z,75151.21
2023-04-22T05:25:40.851Z,75124.89
2023-04-22T05:28:11.337Z,75097.32
2023-04-22T05:30:45.030Z,75066.88
2023-04-22T05:33:12.417Z,75031.49
2023-04-22T05:35:43.686Z,74993.23
2023-04-22T05:38:11.207Z,74957.44
2023-04-22T05:40:40.422Z,74920.83
2023-04-22T05:43:09.595Z,74882.98
2023-04-22T05:45:45.713Z,74839.77
2023-04-22T05:48:14.352Z,74790.41
2023-04-22T05:50:50.652Z,74743.10
2023-04-22T05:53:18.554Z,74702.78
2023-04-22T05:55:45.598Z,74666.58
2023-04-22T05:58:12.860Z,74624.62
2023-04-22T06:00:48.845Z,74588.02
2023-04-22T06:03:34.871Z,74569.49
2023-04-22T06:06:02.567Z,74542.75
2023-04-22T06:08:32.327Z,74516.43
2023-04-22T06:11:01.474Z,74491.34
2023-04-22T06:13:33.057Z,74479.83
2023-04-22T06:16:04.760Z,74467.06
2023-04-22T06:18:35.998Z,74436.22
2023-04-22T06:21:04.610Z,74396.31
2023-04-22T06:23:32.907Z,74363.40
2023-04-22T06:26:01.066Z,74339.95
2023-04-22T06:28:30.835Z,74308.29
2023-04-22T06:31:01.725Z,74281.96
2023-04-22T06:33:29.992Z,74264.69
2023-04-22T06:35:57.069Z,74263.86
2023-04-22T06:38:25.215Z,74258.09
2023-04-22T06:41:32.314Z,74253.58
2023-04-22T06:44:03.045Z,74247.81
2023-04-22T06:46:48.932Z,74256.87
2023-04-22T06:49:37.994Z,74250.70
2023-04-22T06:52:34.646Z,74216.55
2023-04-22T06:55:05.957Z,74184.88
2023-04-22T06:57:33.679Z,74149.52
2023-04-22T07:00:00.931Z,74142.93
2023-04-22T07:02:28.047Z,74147.45
2023-04-22T07:04:55.239Z,74149.92
2023-04-22T07:07:26.069Z,74160.61
2023-04-22T07:09:53.312Z,74154.04
2023-04-22T07:12:20.820Z,74139.64
2023-04-22T07:14:49.028Z,74128.52
2023-04-22T07:17:18.907Z,74127.30
2023-04-22T07:19:45.907Z,74131.41
2023-04-22T07:22:12.973Z,74131.41
2023-04-22T07:24:40.580Z,74133.88
2023-04-22T07:27:08.142Z,74135.52
2023-04-22T07:29:35.989Z,74142.94
2023-04-22T07:32:03.046Z,74162.27
2023-04-22T07:34:30.562Z,74177.89
2023-04-22T07:36:57.641Z,74179.13
2023-04-22T07:39:26.166Z,74177.07
2023-04-22T07:41:53.313Z,74175.02
2023-04-22T07:44:21.166Z,74179.13
2023-04-22T07:46:48.256Z,74197.23
2023-04-22T07:49:16.782Z,74216.97
2023-04-22T07:51:44.468Z,74215.73
2023-04-22T07:54:12.641Z,74205.04
2023-04-22T07:56:41.405Z,74204.22
2023-04-22T07:59:08.402Z,74188.59
2023-04-22T08:01:35.691Z,74156.91
2023-04-22T08:04:03.046Z,74134.29
2023-04-22T08:06:31.494Z,74104.27
2023-04-22T08:08:58.681Z,74068.08
2023-04-22T08:11:26.358Z,74036.80
2023-04-22T08:13:53.487Z,74007.20
2023-04-22T08:16:20.576Z,73977.17
2023-04-22T08:18:47.717Z,73948.79
2023-04-22T08:21:14.967Z,73921.23
2023-04-22T08:23:42.090Z,73879.27
2023-04-22T08:26:11.434Z,73838.55
2023-04-22T08:28:39.771Z,73804.84
2023-04-22T08:31:08.838Z,73776.45
2023-04-22T08:33:36.487Z,73732.03
2023-04-22T08:36:04.132Z,73702.83
2023-04-22T08:38:33.593Z,73683.09
2023-04-22T08:41:02.846Z,73665.41
2023-04-22T08:43:31.215Z,73643.20
2023-04-22T08:45:58.985Z,73611.94
2023-04-22T08:48:29.593Z,73568.77
2023-04-22T08:50:56.952Z,73532.16
2023-04-22T08:53:24.918Z,73518.58
2023-04-22T08:55:53.507Z,73522.70
2023-04-22T08:58:21.384Z,73504.59
2023-04-22T09:00:48.524Z,73477.45
2023-04-22T09:03:16.007Z,73446.61
2023-04-22T09:05:43.151Z,73424.40
2023-04-22T09:08:11.465Z,73402.20
2023-04-22T09:10:38.618Z,73356.96
2023-04-22T09:13:07.402Z,73292.80
2023-04-22T09:15:34.606Z,73247.98
2023-04-22T09:18:03.084Z,73237.29
2023-04-22T09:20:30.520Z,73246.75
2023-04-22T09:23:04.637Z,73240.58
2023-04-22T09:25:34.837Z,73215.09
2023-04-22T09:28:06.061Z,73187.95
2023-04-22T09:30:35.483Z,73190.00
2023-04-22T09:33:04.525Z,73185.48
2023-04-22T09:35:35.668Z,73160.80
2023-04-22T09:38:07.301Z,73119.27
2023-04-22T09:40:35.477Z,73078.56
2023-04-22T09:43:05.733Z,73025.92
2023-04-22T09:46:56.240Z,73038.90
2023-04-22T09:49:25.280Z,73170.27
2023-04-22T09:51:57.711Z,73298.56
2023-04-22T09:54:26.683Z,73404.26
2023-04-22T09:56:55.878Z,73500.48
2023-04-22T09:59:32.161Z,73573.27
2023-04-22T10:02:03.750Z,73627.58
2023-04-22T10:04:32.736Z,73703.24
2023-04-22T10:07:03.129Z,73773.58
2023-04-22T10:09:32.022Z,73840.62
2023-04-22T10:12:01.918Z,73884.63
2023-04-22T10:14:32.136Z,73914.23
2023-04-22T10:17:02.519Z,73879.28
2023-04-22T10:19:31.840Z,73774.40
2023-04-22T10:22:02.087Z,73646.90
2023-04-22T10:24:35.906Z,73511.59
2023-04-22T10:27:10.798Z,73444.97
2023-04-22T10:29:42.380Z,73486.51
2023-04-22T10:32:12.079Z,73559.71
2023-04-22T10:34:41.486Z,73617.70
2023-04-22T10:37:11.823Z,73669.52
2023-04-22T10:39:45.373Z,73715.98
2023-04-22T10:42:18.093Z,73787.98
2023-04-22T10:44:54.001Z,73855.42
2023-04-22T10:47:37.780Z,73918.35
2023-04-22T10:50:09.966Z,73950.02
2023-04-22T10:52:42.700Z,73940.56
2023-04-22T10:55:15.500Z,73920.00
2023-04-22T10:57:46.405Z,73920.83
2023-04-22T11:00:35.369Z,73927.81
2023-04-22T11:03:13.491Z,73935.21
2023-04-22T11:05:43.158Z,73929.04
2023-04-22T11:08:20.784Z,73881.33
2023-04-22T11:11:08.269Z,73805.66
2023-04-22T11:13:38.137Z,73730.80
2023-04-22T11:16:06.741Z,73669.93
2023-04-22T11:18:35.718Z,73606.19
2023-04-22T11:21:06.647Z,73563.41
2023-04-22T11:23:36.051Z,73588.91
2023-04-22T11:26:08.386Z,73637.45
2023-04-22T11:28:46.591Z,73702.84
2023-04-22T11:31:15.828Z,73773.98
2023-04-22T11:33:44.611Z,73836.91
2023-04-22T11:36:15.486Z,73894.90
2023-04-22T11:38:48.133Z,73952.48
2023-04-22T11:41:21.779Z,73999.38
2023-04-22T11:43:50.185Z,74025.70
2023-04-22T11:46:30.925Z,74045.04
2023-04-22T11:49:13.864Z,74075.06
2023-04-22T11:51:56.114Z,74100.98
2023-04-22T11:54:36.161Z,74122.77
2023-04-22T11:57:08.829Z,74136.34
2023-04-22T12:02:20.885Z,74166.38
2023-04-22T12:04:49.410Z,74199.69
2023-04-22T12:07:20.015Z,74218.20
2023-04-22T12:09:54.424Z,74228.90
2023-04-22T12:12:28.940Z,74226.84
2023-04-22T12:14:58.626Z,74213.67
2023-04-22T12:17:27.004Z,74200.51
2023-04-22T12:19:57.392Z,74198.87
2023-04-22T12:22:31.152Z,74214.91
2023-04-22T12:25:00.521Z,74241.65
2023-04-22T12:27:29.458Z,74246.59
2023-04-22T12:30:05.602Z,74245.77
2023-04-22T12:32:36.889Z,74255.63
2023-04-22T12:35:05.601Z,74270.85
2023-04-22T12:37:35.995Z,74271.67
2023-04-22T12:40:06.845Z,74274.15
2023-04-22T12:42:35.314Z,74275.38
2023-04-22T12:45:04.426Z,74279.49
2023-04-22T12:47:33.258Z,74285.25
2023-04-22T12:50:06.477Z,74292.23
2023-04-22T12:52:35.970Z,74292.65
2023-04-22T12:55:05.088Z,74295.53
2023-04-22T12:57:34.426Z,74298.00
2023-04-22T13:00:07.494Z,74301.30
2023-04-22T13:02:38.235Z,74301.29
2023-04-22T13:05:07.835Z,74296.35
2023-04-22T13:07:36.481Z,74294.30
2023-04-22T13:10:06.976Z,74304.98
2023-04-22T13:12:37.290Z,74318.57
2023-04-22T13:15:08.263Z,74327.61
2023-04-22T13:17:37.979Z,74347.36
2023-04-22T13:20:09.718Z,74365.05
2023-04-22T13:22:40.716Z,74369.16
2023-04-22T13:25:09.364Z,74357.23
2023-04-22T13:27:38.011Z,74357.23
2023-04-22T13:30:08.195Z,74368.75
2023-04-22T13:32:38.943Z,74377.80
2023-04-22T13:35:09.443Z,74394.66
2023-04-22T13:37:38.353Z,74413.59
2023-04-22T13:40:09.427Z,74424.70
2023-04-22T13:42:38.057Z,74432.92
2023-04-22T13:45:10.036Z,74442.38
2023-04-22T13:47:39.133Z,74452.26
2023-04-22T13:50:08.067Z,74457.61
2023-04-22T13:52:36.650Z,74453.91
2023-04-22T13:55:05.711Z,74457.61
2023-04-22T13:57:34.910Z,74458.84
2023-04-22T14:00:03.703Z,74466.65
2023-04-22T14:02:41.998Z,74477.36
2023-04-22T14:05:11.059Z,74482.70
2023-04-22T14:07:39.450Z,74486.82
2023-04-22T14:10:09.506Z,74491.75
2023-04-22T14:12:38.362Z,74504.91
2023-04-22T14:15:11.334Z,74512.73
2023-04-22T14:17:40.281Z,74513.97
2023-04-22T14:20:10.969Z,74507.38
2023-04-22T14:22:39.860Z,74499.16
2023-04-22T14:25:09.434Z,74497.92
2023-04-22T14:27:39.892Z,74506.96
2023-04-22T14:30:08.896Z,74515.20
2023-04-22T14:32:38.430Z,74516.84
2023-04-22T14:35:07.378Z,74518.48
2023-04-22T14:37:36.364Z,74527.54
2023-04-22T14:40:05.977Z,74535.77
2023-04-22T14:42:35.936Z,74544.82
2023-04-22T14:45:05.050Z,74544.81
2023-04-22T14:47:33.551Z,74542.34
2023-04-22T14:50:03.713Z,74541.52
2023-04-22T14:52:33.340Z,74540.70
2023-04-22T14:55:11.882Z,74537.83
2023-04-22T14:57:50.276Z,74540.70
2023-04-22T15:00:19.688Z,74539.88
2023-04-22T15:02:48.324Z,74537.00
2023-04-22T15:05:19.081Z,74546.45
2023-04-22T15:07:48.111Z,74559.21
2023-04-22T15:10:17.991Z,74574.84
2023-04-22T15:12:46.592Z,74589.65
2023-04-22T15:15:16.711Z,74601.59
2023-04-22T15:17:46.501Z,74615.57
2023-04-22T15:20:15.516Z,74627.50
2023-04-22T15:22:44.165Z,74631.20
2023-04-22T15:25:12.651Z,74632.85
2023-04-22T15:27:41.429Z,74638.61
2023-04-22T15:30:11.291Z,74644.77
2023-04-22T15:32:40.328Z,74650.95
2023-04-22T15:35:08.894Z,74654.23
2023-04-22T15:37:39.241Z,74655.48
2023-04-22T15:40:08.844Z,74648.89
2023-04-22T15:42:38.307Z,74650.54
2023-04-22T15:45:07.386Z,74656.30
2023-04-22T15:47:38.554Z,74659.17
2023-04-22T15:50:09.615Z,74663.29
2023-04-22T15:52:38.919Z,74667.82
2023-04-22T15:55:08.747Z,74670.69
2023-04-22T15:57:38.575Z,74670.28
2023-04-22T16:00:12.648Z,74668.23
2023-04-22T16:02:56.982Z,74670.70
2023-04-22T16:05:26.181Z,74671.52
2023-04-22T16:07:55.140Z,74675.22
2023-04-22T16:10:26.926Z,74682.20
2023-04-22T16:12:57.072Z,74689.61
2023-04-22T16:15:26.582Z,74702.79
2023-04-22T16:17:56.900Z,74717.18
2023-04-22T16:20:25.835Z,74731.98
2023-04-22T16:22:55.906Z,74745.98
2023-04-22T16:25:29.325Z,74756.67
2023-04-22T16:27:57.958Z,74762.02
2023-04-22T16:30:26.346Z,74770.66
2023-04-22T16:32:54.731Z,74773.95
2023-04-22T16:35:24.654Z,74779.30
2023-04-22T16:37:53.062Z,74782.17
2023-04-22T16:40:21.839Z,74786.29
2023-04-22T16:42:50.676Z,74790.41
2023-04-22T16:45:21.011Z,74795.76
2023-04-22T16:47:49.678Z,74798.63
2023-04-22T16:50:18.084Z,74804.39
2023-04-22T16:52:50.714Z,74812.20
2023-04-22T16:55:19.479Z,74820.03
2023-04-22T16:57:50.754Z,74825.38
2023-04-22T17:00:19.515Z,74835.66
2023-04-22T17:02:48.802Z,74843.48
2023-04-22T17:05:17.742Z,74853.35
2023-04-22T17:07:46.906Z,74863.23
2023-04-22T17:10:17.031Z,74871.86
2023-04-22T17:12:47.476Z,74880.50
2023-04-22T17:15:18.331Z,74889.15
2023-04-22T17:17:48.394Z,74898.20
2023-04-22T17:20:17.402Z,74911.36
2023-04-22T17:22:46.211Z,74921.64
2023-04-22T17:25:14.684Z,74925.77
2023-04-22T17:27:44.905Z,74936.88
2023-04-22T17:30:14.160Z,74943.45
2023-04-22T17:32:42.933Z,74951.27
2023-04-22T17:35:12.486Z,74954.15
2023-04-22T17:37:46.094Z,74962.79
2023-04-22T17:40:16.983Z,74968.95
2023-04-22T17:42:49.150Z,74976.77
2023-04-22T17:45:17.639Z,74981.30
2023-04-22T17:47:47.743Z,74986.65
2023-04-22T17:50:16.406Z,74990.77
2023-04-22T17:52:47.061Z,74998.98
2023-04-22T17:55:15.673Z,75002.27
2023-04-22T17:57:45.647Z,75008.86
2023-04-22T18:00:18.440Z,75014.22
2023-04-22T18:02:47.077Z,75016.68
2023-04-22T18:05:15.908Z,75024.91
2023-04-22T18:07:45.338Z,75029.44
2023-04-22T18:10:13.882Z,75035.20
2023-04-22T18:12:42.557Z,75041.37
2023-04-22T18:15:11.779Z,75047.95
2023-04-22T18:17:43.661Z,75054.95
2023-04-22T18:20:18.601Z,75061.93
2023-04-22T18:22:49.708Z,75067.29
2023-04-22T18:25:18.783Z,75073.05
2023-04-22T18:27:47.935Z,75077.16
2023-04-22T18:30:16.477Z,75084.57
2023-04-22T18:32:45.716Z,75088.68
2023-04-22T18:35:16.218Z,75088.68
2023-04-22T18:37:45.007Z,75089.50
2023-04-22T18:40:17.636Z,75091.97
2023-04-22T18:42:48.050Z,75094.03
2023-04-22T18:45:16.978Z,75094.85
2023-04-22T18:47:47.202Z,75098.14
2023-04-22T18:50:17.895Z,75102.27
2023-04-22T18:52:46.623Z,75105.13
2023-04-22T18:55:15.106Z,75114.19
2023-04-22T18:57:43.749Z,75119.95
2023-04-22T19:00:13.496Z,75122.41
2023-04-22T19:02:47.623Z,75126.13
2023-04-22T19:05:19.514Z,75125.71
2023-04-22T19:07:47.987Z,75130.64
2023-04-22T19:10:19.299Z,75133.11
2023-04-22T19:12:47.762Z,75131.46
2023-04-22T19:15:20.195Z,75133.52
2023-04-22T19:17:48.797Z,75135.99
2023-04-22T19:20:22.615Z,75139.70
2023-04-22T19:22:56.038Z,75141.75
2023-04-22T19:25:24.832Z,75142.98
2023-04-22T19:27:54.613Z,75143.81
2023-04-22T19:30:30.163Z,75146.69
2023-04-22T19:33:03.274Z,75147.10
2023-04-22T19:35:35.795Z,75152.45
2023-04-22T19:38:06.475Z,75155.33
2023-04-22T19:40:38.854Z,75160.67
2023-04-22T19:43:09.932Z,75166.44
2023-04-22T19:45:39.248Z,75172.20
2023-04-22T19:48:14.456Z,75177.14
2023-04-22T19:50:44.020Z,75181.66
2023-04-22T19:53:12.933Z,75186.19
2023-04-22T19:55:43.296Z,75191.54
2023-04-22T19:58:11.729Z,75194.83
2023-04-22T20:00:40.821Z,75206.34
2023-04-22T20:03:10.589Z,75207.58
2023-04-22T20:05:40.667Z,75213.75
2023-04-22T20:08:09.619Z,75215.40
2023-04-22T20:10:38.613Z,75217.04
2023-04-22T20:13:07.081Z,75218.27
2023-04-22T20:15:37.815Z,75217.45
2023-04-22T20:18:07.984Z,75219.52
2023-04-22T20:20:40.002Z,75221.98
2023-04-22T20:23:12.922Z,75225.27
2023-04-22T20:25:44.432Z,75227.33
2023-04-22T20:28:13.037Z,75230.63
2023-04-22T20:30:41.667Z,75235.98
2023-04-22T20:33:12.732Z,75237.20
2023-04-22T20:35:42.566Z,75238.44
2023-04-22T20:38:12.622Z,75242.96
2023-04-22T20:40:40.994Z,75245.85
2023-04-22T20:43:10.143Z,75248.32
2023-04-22T20:45:38.634Z,75252.44
2023-04-22T20:48:07.175Z,75254.89
2023-04-22T20:50:36.517Z,75252.42
2023-04-22T20:53:05.365Z,75256.55
2023-04-22T20:55:36.325Z,75259.42
2023-04-22T20:58:05.790Z,75265.19
2023-04-22T21:00:34.505Z,75267.65
2023-04-22T21:03:05.003Z,75268.48
2023-04-22T21:05:45.238Z,75272.19
2023-04-22T21:08:23.528Z,75279.17
2023-04-22T21:10:53.541Z,75280.82
2023-04-22T21:13:23.620Z,75282.88
2023-04-22T21:15:56.549Z,75283.70
2023-04-22T21:18:25.855Z,75285.77
2023-04-22T21:20:55.597Z,75288.64
2023-04-22T21:23:26.971Z,75295.22
2023-04-22T21:25:56.064Z,75300.98
2023-04-22T21:28:25.080Z,75303.03
2023-04-22T21:30:54.471Z,75306.33
2023-04-22T21:33:25.395Z,75310.02
2023-04-22T21:35:53.925Z,75315.38
2023-04-22T21:38:25.661Z,75322.38
2023-04-22T21:40:54.100Z,75327.31
2023-04-22T21:43:22.725Z,75329.78
2023-04-22T21:45:51.272Z,75331.42
2023-04-22T21:48:22.063Z,75333.48
2023-04-22T21:50:52.377Z,75339.66
2023-04-22T21:53:27.691Z,75341.30
2023-04-22T21:55:56.550Z,75343.77
2023-04-22T21:58:26.371Z,75345.41
2023-04-22T22:00:56.791Z,75348.71
2023-04-22T22:03:25.729Z,75348.30
2023-04-22T22:05:56.128Z,75348.71
2023-04-22T22:08:24.995Z,75352.00
2023-04-22T22:10:53.883Z,75352.82
2023-04-22T22:13:22.907Z,75359.40
2023-04-22T22:15:53.550Z,75361.05
2023-04-22T22:18:27.404Z,75365.58
2023-04-22T22:20:55.855Z,75372.98
2023-04-22T22:23:25.919Z,75378.74
2023-04-22T22:25:55.835Z,75384.09
2023-04-22T22:28:24.638Z,75387.38
2023-04-22T22:30:53.365Z,75388.62
2023-04-22T22:33:23.512Z,75391.91
2023-04-22T22:35:51.762Z,75396.02
2023-04-22T22:38:21.091Z,75400.55
2023-04-22T22:40:49.397Z,75403.43
2023-04-22T22:43:18.319Z,75407.54
2023-04-22T22:45:47.280Z,75414.13
2023-04-22T22:48:16.861Z,75417.42
2023-04-22T22:50:46.814Z,75424.41
2023-04-22T22:53:15.421Z,75429.77
2023-04-22T22:55:43.943Z,75435.93
2023-04-22T22:58:13.091Z,75440.05
2023-04-22T23:00:44.327Z,75447.88
2023-04-22T23:03:13.390Z,75453.63
2023-04-22T23:05:42.163Z,75457.73
2023-04-22T23:08:10.716Z,75463.50
2023-04-22T23:10:39.230Z,75465.56
2023-04-22T23:13:07.581Z,75475.44
2023-04-22T23:15:36.825Z,75483.66
2023-04-22T23:18:06.845Z,75486.96
2023-04-22T23:20:37.053Z,75493.95
2023-04-22T23:23:05.858Z,75498.88
2023-04-22T23:25:34.985Z,75503.41
2023-04-22T23:28:03.571Z,75507.94
2023-04-22T23:30:33.012Z,75512.05
2023-04-22T23:33:05.508Z,75517.41
2023-04-22T23:35:35.481Z,75523.16
2023-04-22T23:38:04.465Z,75528.11
2023-04-22T23:40:32.828Z,75535.10
2023-04-22T23:43:01.641Z,75535.52
2023-04-22T23:45:31.045Z,75540.45
2023-04-22T23:48:00.014Z,75541.69
2023-04-22T23:50:28.499Z,75542.09
2023-04-22T23:52:57.530Z,75545.39
2023-04-22T23:55:26.234Z,75553.61
2023-04-22T23:57:56.649Z,75558.96
